Time;durP1;ratioP1;P1;durP2;ratioP2;P2;SDS_P1;SDS_P2;PMS_P1;PMS_P2;Temp;Humidity;BMP_temperature;BMP_pressure;BME280_temperature;BME280_humidity;BME280_pressure;Samples;Min_cycle;Max_cycle;Signal;HPM_P1;HPM_P2
2023/07/29 00:02:07;;;;;;;6.97;6.38;;;;;;;17.95;93.50;100269.22;7395053;19;20485;-66
2023/07/29 00:04:36;;;;;;;6.65;6.05;;;;;;;17.93;93.33;100265.75;7394869;19;20494;-66
2023/07/29 00:07:07;;;;;;;7.82;5.93;;;;;;;17.91;93.18;100265.00;7393850;19;20011;-67
2023/07/29 00:09:36;;;;;;;7.40;6.05;;;;;;;17.90;93.93;100258.84;7395359;19;20014;-67
2023/07/29 00:12:04;;;;;;;6.90;5.85;;;;;;;17.88;93.68;100257.22;7395290;19;20019;-66
2023/07/29 00:14:33;;;;;;;6.70;6.10;;;;;;;17.88;93.61;100259.88;7395346;19;20014;-66
2023/07/29 00:17:01;;;;;;;6.32;5.72;;;;;;;17.87;93.50;100255.53;7400601;19;20074;-66
2023/07/29 00:19:30;;;;;;;6.50;5.90;;;;;;;17.88;93.49;100254.56;7402653;19;20371;-66
2023/07/29 00:21:58;;;;;;;6.15;5.60;;;;;;;17.87;93.59;100256.38;7401439;19;20086;-66
2023/07/29 00:24:29;;;;;;;6.55;5.95;;;;;;;17.87;93.75;100250.22;7402803;19;20078;-66
2023/07/29 00:26:57;;;;;;;6.75;5.80;;;;;;;17.87;93.73;100252.88;7400937;19;20085;-66
2023/07/29 00:29:26;;;;;;;7.43;5.82;;;;;;;17.86;93.50;100248.53;7401965;19;20516;-65
2023/07/29 00:31:54;;;;;;;7.03;6.40;;;;;;;17.84;93.80;100247.75;7402256;19;20082;-66
2023/07/29 00:34:23;;;;;;;5.95;5.45;;;;;;;17.82;93.17;100244.31;7401813;19;20545;-65
2023/07/29 00:36:51;;;;;;;5.97;5.47;;;;;;;17.81;93.39;100245.28;7400191;19;20007;-65
2023/07/29 00:39:20;;;;;;;7.85;5.70;;;;;;;17.78;93.37;100248.97;7401971;19;20079;-67
2023/07/29 00:41:51;;;;;;;6.13;5.63;;;;;;;17.78;93.56;100240.16;7399225;19;20037;-65
2023/07/29 00:44:19;;;;;;;6.65;6.05;;;;;;;17.75;93.29;100243.84;7401446;19;20014;-65
2023/07/29 00:46:49;;;;;;;7.03;6.38;;;;;;;17.72;93.54;100233.44;7400421;19;20015;-65
2023/07/29 00:49:17;;;;;;;6.13;5.53;;;;;;;17.70;93.57;100219.38;7401653;19;20018;-66
2023/07/29 00:51:46;;;;;;;6.88;6.18;;;;;;;17.66;93.58;100218.72;7401615;19;20031;-65
2023/07/29 00:54:16;;;;;;;7.47;6.20;;;;;;;17.64;93.77;100223.28;7401371;19;20082;-65
2023/07/29 00:56:45;;;;;;;6.78;6.18;;;;;;;17.61;93.76;100218.13;7400237;19;20011;-65
2023/07/29 00:59:16;;;;;;;6.03;5.50;;;;;;;17.58;93.90;100226.28;7401362;19;20010;-65
2023/07/29 01:01:45;;;;;;;6.25;5.65;;;;;;;17.56;93.82;100230.81;7399212;19;20086;-65
2023/07/29 01:04:13;;;;;;;6.38;5.88;;;;;;;17.54;94.16;100224.75;7401164;19;20007;-65
2023/07/29 01:06:49;;;;;;;7.40;6.47;;;;;;;17.51;94.04;100230.25;7399549;19;20073;-66
2023/07/29 01:09:28;;;;;;;6.05;5.45;;;;;;;17.47;94.18;100223.44;7401517;19;20024;-66
2023/07/29 01:12:04;;;;;;;6.10;5.57;;;;;;;17.43;94.27;100230.69;7398094;19;20066;-66
2023/07/29 01:14:58;;;;;;;6.80;6.00;;;;;;;17.40;94.34;100229.09;7402025;19;20094;-66
2023/07/29 01:17:35;;;;;;;6.30;5.60;;;;;;;17.37;94.53;100223.94;7397765;19;20028;-66
2023/07/29 01:20:09;;;;;;;6.72;6.13;;;;;;;17.33;94.68;100217.13;7400590;19;20454;-66
2023/07/29 01:22:39;;;;;;;6.90;6.20;;;;;;;17.30;95.12;100217.31;7397538;19;20014;-66
2023/07/29 01:25:11;;;;;;;6.40;5.80;;;;;;;17.26;94.73;100215.75;7397956;19;20035;-66
2023/07/29 01:27:39;;;;;;;6.32;5.72;;;;;;;17.25;95.01;100219.38;7395681;19;20415;-66
2023/07/29 01:30:09;;;;;;;6.78;6.18;;;;;;;17.21;95.28;100213.41;7397831;19;20074;-66
2023/07/29 01:32:42;;;;;;;6.53;5.93;;;;;;;17.18;95.15;100218.03;7399953;19;20388;-66
2023/07/29 01:35:19;;;;;;;6.00;5.50;;;;;;;17.15;95.52;100218.19;7399931;19;20533;-66
2023/07/29 01:37:51;;;;;;;6.70;6.05;;;;;;;17.12;95.32;100216.56;7397690;19;20477;-66
2023/07/29 01:40:25;;;;;;;7.38;6.68;;;;;;;17.08;95.62;100218.53;7399406;19;20019;-66
2023/07/29 01:42:53;;;;;;;7.00;6.38;;;;;;;17.06;95.42;100212.47;7399731;19;20352;-66
2023/07/29 01:45:26;;;;;;;7.55;6.75;;;;;;;17.03;95.60;100211.78;7397060;19;20014;-66
2023/07/29 01:47:55;;;;;;;7.30;6.60;;;;;;;17.01;95.64;100214.53;7397653;19;20011;-66
2023/07/29 01:50:23;;;;;;;7.47;6.78;;;;;;;17.00;95.75;100212.81;7399758;19;20073;-64
2023/07/29 01:52:52;;;;;;;7.72;6.50;;;;;;;16.98;95.97;100209.41;7399198;19;20006;-64
2023/07/29 01:55:23;;;;;;;8.13;7.32;;;;;;;16.98;96.03;100212.06;7397042;19;20021;-64
2023/07/29 01:57:51;;;;;;;8.65;7.10;;;;;;;16.98;96.09;100212.06;7396959;19;20006;-66
2023/07/29 02:00:21;;;;;;;7.47;6.78;;;;;;;16.99;96.17;100207.63;7396963;19;20090;-66
2023/07/29 02:02:49;;;;;;;7.35;6.47;;;;;;;16.99;96.21;100203.16;7398901;19;20473;-66
2023/07/29 02:05:18;;;;;;;7.57;6.75;;;;;;;17.00;96.38;100198.75;7398832;19;20014;-67
2023/07/29 02:07:46;;;;;;;6.90;6.20;;;;;;;17.01;96.44;100198.63;7397148;19;20107;-66
2023/07/29 02:10:15;;;;;;;8.30;6.07;;;;;;;17.02;96.10;100197.72;7396846;19;20014;-66
2023/07/29 02:12:46;;;;;;;6.68;6.07;;;;;;;17.04;96.22;100205.56;7396315;19;20403;-66
2023/07/29 02:15:14;;;;;;;6.75;6.15;;;;;;;17.05;96.39;100216.06;7396785;19;20033;-66
2023/07/29 02:17:44;;;;;;;7.13;6.53;;;;;;;17.06;96.53;100217.78;7396873;19;20078;-66
2023/07/29 02:20:13;;;;;;;7.18;6.47;;;;;;;17.07;96.28;100222.16;7398067;19;20011;-66
2023/07/29 02:22:42;;;;;;;6.88;6.18;;;;;;;17.08;96.39;100217.69;7397250;19;20015;-65
2023/07/29 02:25:11;;;;;;;6.70;6.00;;;;;;;17.09;96.24;100222.88;7398216;19;20010;-65
2023/07/29 02:27:40;;;;;;;7.13;6.43;;;;;;;17.12;96.53;100228.97;7396294;19;20015;-65
2023/07/29 02:30:12;;;;;;;6.88;6.28;;;;;;;17.12;96.81;100229.81;7396192;19;20014;-66
2023/07/29 02:32:41;;;;;;;6.22;5.63;;;;;;;17.13;96.83;100230.69;7398320;19;20015;-67
2023/07/29 02:35:10;;;;;;;7.22;6.53;;;;;;;17.14;96.72;100227.09;7395450;19;20024;-66
2023/07/29 02:37:38;;;;;;;7.15;6.45;;;;;;;17.14;96.68;100219.16;7394488;19;20481;-66
2023/07/29 02:40:08;;;;;;;6.80;6.05;;;;;;;17.14;96.99;100221.78;7397354;19;20035;-67
2023/07/29 02:42:37;;;;;;;6.95;6.30;;;;;;;17.16;96.56;100220.75;7395135;19;20493;-67
2023/07/29 02:45:09;;;;;;;5.90;5.40;;;;;;;17.17;97.16;100226.91;7397490;19;20163;-66
2023/07/29 02:47:40;;;;;;;6.70;6.10;;;;;;;17.17;96.70;100226.91;7395843;19;20402;-66
2023/07/29 02:50:10;;;;;;;6.68;6.07;;;;;;;17.19;97.23;100219.72;7395027;19;20006;-66
2023/07/29 02:52:44;;;;;;;7.35;6.50;;;;;;;17.20;96.82;100224.06;7397230;19;20039;-66
2023/07/29 02:55:13;;;;;;;6.70;5.97;;;;;;;17.21;97.64;100223.13;7396981;19;20010;-66
2023/07/29 02:57:41;;;;;;;7.65;5.93;;;;;;;17.21;97.85;100221.34;7394962;19;20533;-66
2023/07/29 03:00:11;;;;;;;5.95;5.28;;;;;;;17.21;97.88;100218.69;7397417;19;20090;-66
2023/07/29 03:02:42;;;;;;;6.13;5.53;;;;;;;17.22;98.10;100219.53;7394698;19;20384;-66
2023/07/29 03:05:11;;;;;;;6.20;5.60;;;;;;;17.22;97.88;100208.94;7397039;19;20014;-66
2023/07/29 03:07:40;;;;;;;6.43;5.80;;;;;;;17.23;97.74;100219.44;7395461;19;20039;-66
2023/07/29 03:10:10;;;;;;;5.68;5.18;;;;;;;17.23;97.66;100221.25;7394762;19;20039;-66
2023/07/29 03:12:39;;;;;;;6.15;5.65;;;;;;;17.24;97.62;100221.16;7396970;19;20015;-67
2023/07/29 03:15:09;;;;;;;6.28;5.68;;;;;;;17.23;97.47;100208.84;7396103;19;20434;-66
2023/07/29 03:17:37;;;;;;;6.28;5.43;;;;;;;17.23;97.67;100219.44;7394534;19;20006;-66
2023/07/29 03:20:10;;;;;;;6.32;5.68;;;;;;;17.23;97.32;100210.66;7396226;19;20018;-66
2023/07/29 03:22:45;;;;;;;6.47;5.88;;;;;;;17.23;97.42;100210.66;7394267;19;20015;-66
2023/07/29 03:25:13;;;;;;;6.10;5.57;;;;;;;17.21;97.45;100216.06;7396443;19;20163;-66
2023/07/29 03:27:42;;;;;;;6.35;5.70;;;;;;;17.21;97.73;100213.41;7394096;19;20082;-67
2023/07/29 03:30:11;;;;;;;6.40;5.80;;;;;;;17.20;97.54;100211.69;7395515;19;20007;-66
2023/07/29 03:32:46;;;;;;;7.32;6.63;;;;;;;17.21;97.49;100217.81;7395266;19;20481;-66
2023/07/29 03:35:17;;;;;;;6.82;6.13;;;;;;;17.18;97.60;100204.75;7394494;19;20017;-66
2023/07/29 03:37:46;;;;;;;6.68;5.65;;;;;;;17.21;97.89;100213.41;7393876;19;20069;-66
2023/07/29 03:40:14;;;;;;;6.30;5.70;;;;;;;17.21;97.76;100218.69;7395539;19;20074;-66
2023/07/29 03:42:42;;;;;;;9.85;6.25;;;;;;;17.22;97.62;100211.59;7393509;19;20011;-66
2023/07/29 03:45:12;;;;;;;8.25;6.22;;;;;;;17.23;98.06;100208.00;7395821;19;20073;-66
2023/07/29 03:47:40;;;;;;;6.55;6.03;;;;;;;17.22;98.22;100207.13;7393549;19;20018;-66
2023/07/29 03:50:09;;;;;;;7.07;5.43;;;;;;;17.21;98.02;100208.09;7391765;19;20028;-67
2023/07/29 03:52:40;;;;;;;7.07;5.38;;;;;;;17.23;97.89;100208.00;7394987;19;20027;-65
2023/07/29 03:55:10;;;;;;;8.98;7.75;;;;;;;17.23;98.07;100203.53;7395408;19;20081;-66
2023/07/29 03:57:38;;;;;;;7.13;5.97;;;;;;;17.23;98.46;100208.00;7393653;19;20382;-65
2023/07/29 04:00:10;;;;;;;9.15;8.13;;;;;;;17.22;98.38;100209.78;7394921;19;20027;-66
2023/07/29 04:02:39;;;;;;;6.40;5.72;;;;;;;17.22;98.74;100208.94;7393035;19;20017;-67
2023/07/29 04:05:08;;;;;;;5.47;4.82;;;;;;;17.21;98.43;100213.41;7394660;19;20097;-67
2023/07/29 04:07:40;;;;;;;6.35;5.72;;;;;;;17.20;98.89;100221.41;7392879;19;20015;-66
2023/07/29 04:10:10;;;;;;;6.38;5.78;;;;;;;17.20;98.84;100216.13;7392459;19;20027;-66
2023/07/29 04:12:38;;;;;;;5.82;5.25;;;;;;;17.19;99.21;100222.38;7395235;19;20441;-67
2023/07/29 04:15:08;;;;;;;5.53;5.00;;;;;;;17.17;99.08;100218.97;7394247;19;20369;-67
2023/07/29 04:17:36;;;;;;;6.25;5.72;;;;;;;17.17;99.43;100213.66;7392638;19;20074;-66
2023/07/29 04:20:05;;;;;;;6.50;5.22;;;;;;;17.17;99.33;100205.69;7394145;19;20027;-67
2023/07/29 04:22:50;;;;;;;8.23;6.22;;;;;;;17.17;99.31;100206.53;7391991;19;20018;-66
2023/07/29 04:25:18;;;;;;;8.10;5.13;;;;;;;17.17;99.56;100211.00;7392944;19;20094;-67
2023/07/29 04:27:47;;;;;;;6.35;4.68;;;;;;;17.16;99.75;100210.16;7392460;19;20082;-67
2023/07/29 04:30:15;;;;;;;5.35;4.85;;;;;;;17.16;99.77;100204.00;7394332;19;20069;-67
2023/07/29 04:32:44;;;;;;;5.85;5.28;;;;;;;17.16;100.00;100202.22;7393638;19;20010;-67
2023/07/29 04:35:13;;;;;;;5.90;4.82;;;;;;;17.17;100.00;100201.25;7392152;19;20010;-67
2023/07/29 04:37:44;;;;;;;5.22;4.72;;;;;;;17.20;100.00;100203.72;7392470;19;20086;-67
2023/07/29 04:40:13;;;;;;;7.20;5.80;;;;;;;17.21;99.65;100201.91;7395969;19;20362;-67
2023/07/29 04:42:41;;;;;;;5.60;5.07;;;;;;;17.24;100.00;100202.59;7391880;19;20014;-67
2023/07/29 04:45:10;;;;;;;5.60;4.25;;;;;;;17.27;100.00;100198.91;7393514;19;20557;-67
2023/07/29 04:47:40;;;;;;;17.38;14.27;;;;;;;17.33;100.00;100205.66;7392181;19;20014;-66
2023/07/29 04:50:10;;;;;;;7.28;5.25;;;;;;;17.37;99.99;100202.72;7393380;19;20358;-66
2023/07/29 04:52:38;;;;;;;4.82;4.32;;;;;;;17.42;100.00;100210.44;7391752;19;20070;-67
2023/07/29 04:55:10;;;;;;;10.50;4.22;;;;;;;17.47;100.00;100202.22;7391166;19;20024;-66
2023/07/29 04:57:38;;;;;;;5.07;4.68;;;;;;;17.51;99.80;100201.91;7393686;19;20473;-67
2023/07/29 05:00:08;;;;;;;4.88;3.78;;;;;;;17.55;99.88;100206.13;7393022;19;20420;-67
2023/07/29 05:02:36;;;;;;;5.03;4.30;;;;;;;17.59;100.00;100212.06;7398138;19;20445;-67
2023/07/29 05:05:05;;;;;;;3.90;3.55;;;;;;;17.62;100.00;100206.59;7397685;19;20074;-67
2023/07/29 05:07:33;;;;;;;4.68;4.28;;;;;;;17.66;100.00;100201.97;7398366;19;20070;-67
2023/07/29 05:10:02;;;;;;;4.35;3.78;;;;;;;17.69;100.00;100204.41;7400336;19;20087;-67
2023/07/29 05:12:33;;;;;;;4.07;3.67;;;;;;;17.71;99.98;100206.03;7400515;19;20372;-66
2023/07/29 05:15:02;;;;;;;3.97;3.58;;;;;;;17.75;100.00;100207.56;7400742;19;20267;-66
2023/07/29 05:17:30;;;;;;;7.00;4.47;;;;;;;17.80;100.00;100203.78;7398242;19;20014;-67
2023/07/29 05:19:59;;;;;;;4.43;3.72;;;;;;;17.83;99.69;100203.56;7400577;19;20010;-67
2023/07/29 05:22:27;;;;;;;3.63;3.33;;;;;;;17.86;99.51;100209.56;7397651;19;20432;-67
2023/07/29 05:24:56;;;;;;;3.38;3.10;;;;;;;17.89;99.51;100204.09;7398276;19;20355;-67
2023/07/29 05:27:24;;;;;;;3.88;3.58;;;;;;;17.94;99.15;100205.63;7398596;19;20063;-67
2023/07/29 05:29:55;;;;;;;4.32;3.92;;;;;;;17.96;99.24;100193.97;7399941;19;20422;-66
2023/07/29 05:32:24;;;;;;;3.70;3.40;;;;;;;18.00;99.83;100189.31;7397486;19;20035;-66
2023/07/29 05:34:52;;;;;;;3.60;3.30;;;;;;;18.04;99.45;100186.38;7400029;19;20031;-67
2023/07/29 05:37:20;;;;;;;3.95;3.55;;;;;;;18.09;99.04;100182.59;7398010;19;20477;-67
2023/07/29 05:39:49;;;;;;;4.60;2.97;;;;;;;18.14;99.29;100177.84;7400013;19;20090;-67
2023/07/29 05:42:17;;;;;;;4.63;2.85;;;;;;;18.18;98.82;100174.03;7398403;19;20548;-67
2023/07/29 05:44:46;;;;;;;3.90;3.10;;;;;;;18.23;98.65;100175.44;7397430;19;20078;-67
2023/07/29 05:47:17;;;;;;;3.65;2.83;;;;;;;18.29;98.83;100174.22;7398159;19;20074;-67
2023/07/29 05:49:45;;;;;;;6.30;3.45;;;;;;;18.35;98.99;100165.00;7400072;19;20161;-67
2023/07/29 05:52:14;;;;;;;4.65;3.15;;;;;;;18.40;98.40;100157.63;7399589;19;20031;-67
2023/07/29 05:54:42;;;;;;;3.10;2.80;;;;;;;18.47;98.22;100152.75;7399485;19;20016;-67
2023/07/29 05:57:11;;;;;;;4.20;3.25;;;;;;;18.53;98.16;100152.38;7398041;19;20081;-67
2023/07/29 05:59:40;;;;;;;4.05;3.60;;;;;;;18.57;97.84;100151.22;7398816;19;20433;-67
2023/07/29 06:02:08;;;;;;;4.40;3.28;;;;;;;18.63;97.14;100161.44;7398280;19;20082;-67
2023/07/29 06:04:40;;;;;;;3.00;2.80;;;;;;;18.70;97.64;100165.41;7396767;19;20078;-67
2023/07/29 06:07:09;;;;;;;3.53;3.08;;;;;;;18.77;97.36;100167.69;7397373;19;20379;-67
2023/07/29 06:09:37;;;;;;;3.63;3.25;;;;;;;18.84;96.95;100164.50;7396576;19;20085;-67
2023/07/29 06:12:06;;;;;;;4.05;3.13;;;;;;;18.90;96.30;100168.59;7398146;19;20074;-67
2023/07/29 06:14:35;;;;;;;4.07;2.58;;;;;;;18.97;96.18;100164.56;7398662;19;20007;-66
2023/07/29 06:17:03;;;;;;;2.95;2.67;;;;;;;19.04;96.46;100168.53;7397541;19;20045;-66
2023/07/29 06:19:32;;;;;;;4.82;3.15;;;;;;;19.11;95.75;100168.09;7398169;19;20214;-66
2023/07/29 06:22:04;;;;;;;3.00;2.70;;;;;;;19.18;95.45;100174.72;7397832;19;20011;-67
2023/07/29 06:24:32;;;;;;;2.92;2.40;;;;;;;19.26;95.23;100176.88;7396562;19;20481;-66
2023/07/29 06:27:01;;;;;;;2.78;2.10;;;;;;;19.34;94.27;100178.06;7397307;19;20082;-66
2023/07/29 06:29:29;;;;;;;2.60;2.40;;;;;;;19.43;93.78;100181.06;7398118;19;20507;-67
2023/07/29 06:31:58;;;;;;;2.75;2.50;;;;;;;19.51;92.20;100192.88;7398053;19;20081;-66
2023/07/29 06:34:26;;;;;;;2.55;2.30;;;;;;;19.59;91.95;100189.69;7397877;19;20498;-67
2023/07/29 06:36:54;;;;;;;3.28;2.33;;;;;;;19.68;91.47;100189.06;7396261;19;20035;-67
2023/07/29 06:39:25;;;;;;;2.00;1.80;;;;;;;19.77;90.96;100206.22;7397770;19;20079;-67
2023/07/29 06:41:54;;;;;;;3.97;1.90;;;;;;;19.86;90.24;100194.09;7397991;19;20015;-67
2023/07/29 06:44:22;;;;;;;2.13;1.92;;;;;;;19.95;89.96;100193.44;7397756;19;20066;-67
2023/07/29 06:46:51;;;;;;;2.58;1.90;;;;;;;20.04;88.82;100188.44;7396357;19;20070;-67
2023/07/29 06:49:19;;;;;;;3.13;2.60;;;;;;;20.12;88.26;100197.59;7395729;19;20018;-67
2023/07/29 06:51:47;;;;;;;2.60;2.03;;;;;;;20.20;88.64;100190.91;7397327;19;20477;-66
2023/07/29 06:54:16;;;;;;;2.72;1.80;;;;;;;20.29;88.57;100185.75;7397169;19;20073;-67
2023/07/29 06:56:47;;;;;;;2.53;1.85;;;;;;;20.37;87.90;100190.50;7396136;19;20015;-66
2023/07/29 06:59:15;;;;;;;2.85;2.10;;;;;;;20.46;86.96;100192.53;7397564;19;20074;-66
2023/07/29 07:01:44;;;;;;;3.38;1.83;;;;;;;20.54;86.38;100193.81;7396970;19;20082;-65
2023/07/29 07:04:12;;;;;;;2.20;2.00;;;;;;;20.60;85.26;100194.19;7397064;19;20161;-66
2023/07/29 07:06:40;;;;;;;2.67;1.63;;;;;;;20.66;84.89;100183.09;7394708;19;20074;-66
2023/07/29 07:09:09;;;;;;;2.20;2.00;;;;;;;20.76;84.88;100185.97;7394627;19;20395;-66
2023/07/29 07:11:37;;;;;;;1.88;1.40;;;;;;;20.85;84.76;100189.75;7396862;19;20010;-65
2023/07/29 07:14:08;;;;;;;3.30;1.70;;;;;;;20.89;83.68;100185.91;7396264;19;20011;-65
2023/07/29 07:16:39;;;;;;;1.75;1.65;;;;;;;20.99;83.00;100194.94;7396367;19;20086;-67
2023/07/29 07:19:07;;;;;;;3.55;2.10;;;;;;;21.09;81.98;100183.56;7396861;19;20457;-67
2023/07/29 07:21:36;;;;;;;1.63;1.50;;;;;;;21.20;80.28;100186.28;7396730;19;20082;-67
2023/07/29 07:24:04;;;;;;;2.70;1.48;;;;;;;21.31;78.26;100183.66;7392314;19;20034;-67
2023/07/29 07:26:33;;;;;;;1.77;1.63;;;;;;;21.45;79.76;100184.41;7394496;19;20504;-67
2023/07/29 07:29:01;;;;;;;3.50;1.55;;;;;;;21.56;78.31;100171.13;7396803;19;20097;-67
2023/07/29 07:31:36;;;;;;;2.20;1.35;;;;;;;21.67;77.99;100161.44;7395858;19;20484;-66
2023/07/29 07:34:04;;;;;;;3.95;1.60;;;;;;;21.79;78.24;100171.16;7395778;19;20066;-66
2023/07/29 07:36:33;;;;;;;2.03;1.50;;;;;;;21.84;77.94;100169.00;7393897;19;20019;-66
2023/07/29 07:39:01;;;;;;;1.63;1.50;;;;;;;21.86;77.53;100167.03;7393978;19;20078;-66
2023/07/29 07:41:30;;;;;;;1.50;1.40;;;;;;;21.91;77.28;100167.53;7395493;19;20481;-66
2023/07/29 07:43:58;;;;;;;2.83;1.67;;;;;;;21.95;77.19;100155.63;7394297;19;20082;-67
2023/07/29 07:46:27;;;;;;;2.15;1.58;;;;;;;21.99;76.62;100163.41;7395557;19;20018;-66
2023/07/29 07:48:58;;;;;;;2.15;1.40;;;;;;;22.02;76.94;100161.34;7394871;19;20013;-66
2023/07/29 07:51:26;;;;;;;2.42;1.20;;;;;;;22.05;76.43;100155.78;7396037;19;20015;-66
2023/07/29 07:53:54;;;;;;;3.88;1.50;;;;;;;22.10;76.18;100153.59;7393662;19;20078;-66
2023/07/29 07:56:23;;;;;;;1.55;1.45;;;;;;;22.18;75.88;100152.97;7394288;19;20483;-66
2023/07/29 07:58:51;;;;;;;2.28;1.50;;;;;;;22.25;75.41;100151.47;7395418;19;20057;-66
2023/07/29 08:01:20;;;;;;;1.50;1.40;;;;;;;22.35;75.20;100140.91;7395363;19;20070;-67
2023/07/29 08:03:48;;;;;;;1.83;1.35;;;;;;;22.46;74.04;100142.75;7393537;19;20521;-67
2023/07/29 08:06:19;;;;;;;1.45;1.13;;;;;;;22.54;72.68;100148.31;7394325;19;20027;-67
2023/07/29 08:08:48;;;;;;;2.13;1.35;;;;;;;22.63;72.60;100148.53;7394398;19;20373;-66
2023/07/29 08:11:16;;;;;;;1.40;1.27;;;;;;;22.71;72.16;100146.94;7394258;19;20018;-67
2023/07/29 08:13:44;;;;;;;1.33;1.23;;;;;;;22.81;71.47;100144.34;7394440;19;20073;-67
2023/07/29 08:16:13;;;;;;;1.67;1.15;;;;;;;22.92;70.67;100141.63;7393219;19;20162;-66
2023/07/29 08:18:41;;;;;;;3.08;1.30;;;;;;;23.04;70.75;100139.75;7393977;19;20035;-66
2023/07/29 08:21:10;;;;;;;2.40;1.50;;;;;;;23.14;70.39;100141.63;7392237;19;20086;-67
2023/07/29 08:23:41;;;;;;;2.17;1.38;;;;;;;23.22;68.64;100139.19;7391947;19;20074;-67
2023/07/29 08:26:09;;;;;;;2.92;1.10;;;;;;;23.31;69.71;100148.28;7393384;19;20082;-67
2023/07/29 08:28:39;;;;;;;2.42;1.48;;;;;;;23.37;69.03;100132.53;7393049;19;20501;-67
2023/07/29 08:31:08;;;;;;;3.15;1.52;;;;;;;23.46;68.94;100125.56;7391522;19;20082;-65
2023/07/29 08:33:37;;;;;;;1.40;1.30;;;;;;;23.51;68.47;100128.69;7393021;19;20038;-67
2023/07/29 08:36:06;;;;;;;2.55;1.52;;;;;;;23.62;68.46;100132.25;7395535;19;20023;-65
2023/07/29 08:38:34;;;;;;;1.90;1.27;;;;;;;23.70;67.61;100129.75;7399864;19;20014;-66
2023/07/29 08:41:15;;;;;;;1.38;1.10;;;;;;;23.78;66.20;100143.31;7399809;19;20435;-66
2023/07/29 08:43:51;;;;;;;1.20;1.10;;;;;;;23.82;66.31;100128.69;7398618;19;20018;-67
2023/07/29 08:46:21;;;;;;;1.75;1.33;;;;;;;23.88;66.77;100124.63;7400709;19;20093;-67
2023/07/29 08:48:52;;;;;;;2.83;1.40;;;;;;;23.95;66.56;100130.31;7400193;19;20014;-67
2023/07/29 08:51:21;;;;;;;1.50;1.40;;;;;;;24.02;66.45;100126.97;7400132;19;20473;-65
2023/07/29 08:53:51;;;;;;;2.95;1.50;;;;;;;24.10;65.79;100125.44;7397358;19;20032;-67
2023/07/29 08:56:22;;;;;;;2.70;1.92;;;;;;;24.18;65.08;100126.44;7399207;19;20085;-67
2023/07/29 08:58:51;;;;;;;1.70;1.10;;;;;;;24.27;64.85;100123.94;7400739;19;20039;-67
2023/07/29 09:01:19;;;;;;;3.65;1.83;;;;;;;24.31;64.32;100125.34;7399460;19;20074;-66
2023/07/29 09:03:48;;;;;;;4.85;1.83;;;;;;;24.33;63.62;100126.06;7398041;19;20014;-66
2023/07/29 09:06:17;;;;;;;2.33;1.50;;;;;;;24.37;64.02;100122.97;7399519;19;20017;-66
2023/07/29 09:08:47;;;;;;;1.63;1.20;;;;;;;24.42;63.09;100122.56;7399803;19;20010;-66
2023/07/29 09:11:18;;;;;;;3.67;1.80;;;;;;;24.46;63.26;100118.59;7400221;19;20074;-66
2023/07/29 09:14:10;;;;;;;2.85;1.20;;;;;;;24.45;61.88;100121.44;7400028;19;20010;-67
2023/07/29 09:16:39;;;;;;;1.83;1.25;;;;;;;24.46;62.50;100115.09;7398811;19;20078;-66
2023/07/29 09:19:08;;;;;;;1.45;1.20;;;;;;;24.46;61.67;100115.91;7399815;19;20017;-65
2023/07/29 09:21:36;;;;;;;3.25;1.42;;;;;;;24.48;61.35;100116.66;7396929;19;20043;-66
2023/07/29 09:24:18;;;;;;;1.63;1.10;;;;;;;24.48;59.89;100107.72;7396848;19;20010;-66
2023/07/29 09:26:53;;;;;;;2.40;1.50;;;;;;;24.52;60.35;100101.97;7399353;19;20074;-66
2023/07/29 09:29:31;;;;;;;1.58;1.33;;;;;;;24.56;60.44;100098.00;7400535;19;20357;-66
2023/07/29 09:32:21;;;;;;;3.38;1.20;;;;;;;24.64;60.26;100093.78;7400300;19;20041;-67
2023/07/29 09:34:50;;;;;;;4.22;1.60;;;;;;;24.70;61.28;100090.56;7400251;19;20015;-66
2023/07/29 09:37:20;;;;;;;1.92;1.40;;;;;;;24.75;61.08;100088.31;7398382;19;20010;-66
2023/07/29 09:39:49;;;;;;;1.60;1.30;;;;;;;24.80;60.91;100094.09;7399568;19;20493;-67
2023/07/29 09:42:21;;;;;;;1.70;1.52;;;;;;;24.88;60.71;100098.75;7399793;19;20007;-67
2023/07/29 09:44:53;;;;;;;2.30;1.70;;;;;;;25.01;60.61;100088.59;7396652;19;20386;-67
2023/07/29 09:47:24;;;;;;;1.23;1.13;;;;;;;25.14;59.92;100092.81;7395994;19;20028;-66
2023/07/29 09:49:53;;;;;;;1.67;1.48;;;;;;;25.22;58.75;100092.91;7399595;19;20100;-66
2023/07/29 09:52:22;;;;;;;1.50;1.30;;;;;;;25.24;58.60;100095.44;7398663;19;20082;-66
2023/07/29 09:54:51;;;;;;;1.50;1.20;;;;;;;25.25;58.07;100092.66;7399311;19;20083;-66
2023/07/29 09:57:21;;;;;;;1.92;1.40;;;;;;;25.27;57.71;100079.91;7397598;19;20079;-66
2023/07/29 09:59:59;;;;;;;1.70;1.40;;;;;;;25.32;57.09;100087.53;7398660;19;20014;-66
2023/07/29 10:02:30;;;;;;;1.65;1.40;;;;;;;25.37;57.25;100079.91;7399746;19;20018;-66
2023/07/29 10:05:00;;;;;;;1.63;1.30;;;;;;;25.43;57.02;100076.66;7397121;19;20025;-66
2023/07/29 10:07:29;;;;;;;2.10;1.23;;;;;;;25.49;57.00;100076.06;7397098;19;20014;-65
2023/07/29 10:09:58;;;;;;;1.70;1.15;;;;;;;25.58;56.73;100076.16;7398906;19;20082;-66
2023/07/29 10:12:27;;;;;;;2.67;1.30;;;;;;;25.66;56.27;100066.38;7398963;19;20035;-66
2023/07/29 10:15:02;;;;;;;2.17;1.20;;;;;;;25.68;54.35;100067.09;7398742;19;20074;-66
2023/07/29 10:17:31;;;;;;;3.03;1.33;;;;;;;25.72;55.29;100062.28;7397169;19;20019;-67
2023/07/29 10:20:00;;;;;;;1.35;1.10;;;;;;;25.72;55.04;100056.91;7398668;19;20011;-66
2023/07/29 10:22:35;;;;;;;2.38;1.20;;;;;;;25.73;55.35;100057.72;7396117;19;20029;-66
2023/07/29 10:25:07;;;;;;;1.65;1.50;;;;;;;25.74;55.58;100046.00;7395553;19;20015;-67
2023/07/29 10:27:45;;;;;;;2.28;1.63;;;;;;;25.76;54.12;100050.22;7396088;19;20014;-66
2023/07/29 10:30:17;;;;;;;2.15;1.23;;;;;;;25.76;55.05;100050.22;7397754;19;20025;-66
2023/07/29 10:32:47;;;;;;;4.80;1.20;;;;;;;25.74;54.39;100048.69;7396023;19;20074;-66
2023/07/29 10:35:16;;;;;;;2.38;1.30;;;;;;;25.63;55.01;100039.84;7397526;19;20473;-67
2023/07/29 10:37:46;;;;;;;2.08;1.38;;;;;;;25.48;56.12;100050.22;7395396;19;20070;-67
2023/07/29 10:40:15;;;;;;;1.38;1.25;;;;;;;25.20;57.76;100058.19;7397214;19;20046;-67
2023/07/29 10:43:03;;;;;;;5.22;1.50;;;;;;;24.82;60.89;100059.06;7397057;19;20021;-67
2023/07/29 10:45:40;;;;;;;1.90;1.33;;;;;;;24.47;65.56;100064.00;7395048;19;20481;-67
2023/07/29 10:48:10;;;;;;;4.60;2.00;;;;;;;24.09;65.11;100062.97;7397477;19;20015;-67
2023/07/29 10:50:38;;;;;;;1.98;1.58;;;;;;;23.62;67.92;100059.97;7398427;19;20007;-67
2023/07/29 10:53:07;;;;;;;2.25;1.50;;;;;;;23.21;69.96;100066.09;7397035;19;20066;-67
2023/07/29 10:55:37;;;;;;;2.15;1.92;;;;;;;22.95;71.28;100057.59;7396522;19;20190;-67
2023/07/29 10:58:11;;;;;;;1.95;1.75;;;;;;;22.78;73.89;100046.53;7395047;19;20015;-66
2023/07/29 11:00:44;;;;;;;1.52;1.42;;;;;;;22.69;73.12;100051.78;7397235;19;20031;-67
2023/07/29 11:03:14;;;;;;;3.15;1.35;;;;;;;22.67;73.01;100045.72;7396997;19;20074;-67
2023/07/29 11:05:51;;;;;;;1.27;1.17;;;;;;;22.67;74.35;100048.38;7397078;19;20027;-67
2023/07/29 11:08:25;;;;;;;1.65;1.40;;;;;;;22.67;73.50;100048.38;7397390;19;20419;-67
2023/07/29 11:11:01;;;;;;;1.45;1.35;;;;;;;22.66;73.94;100049.34;7396255;19;20014;-66
2023/07/29 11:13:30;;;;;;;3.40;1.65;;;;;;;22.71;73.76;100049.81;7394649;19;20086;-67
2023/07/29 11:16:02;;;;;;;2.97;1.10;;;;;;;22.72;74.70;100054.19;7395779;19;20033;-67
2023/07/29 11:18:32;;;;;;;2.55;1.42;;;;;;;22.70;72.98;100048.97;7396785;19;20015;-67
2023/07/29 11:21:01;;;;;;;2.40;1.20;;;;;;;22.69;71.82;100054.47;7395959;19;20477;-66
2023/07/29 11:23:34;;;;;;;1.20;1.10;;;;;;;22.66;71.17;100049.34;7395605;19;20074;-67
2023/07/29 11:26:09;;;;;;;2.22;1.20;;;;;;;22.64;70.42;100056.66;7393843;19;20018;-67
2023/07/29 11:28:41;;;;;;;2.45;1.38;;;;;;;22.64;71.06;100059.34;7395839;19;20017;-67
2023/07/29 11:31:14;;;;;;;3.97;1.13;;;;;;;22.61;69.72;100055.94;7395407;19;20010;-67
2023/07/29 11:33:42;;;;;;;2.00;1.40;;;;;;;22.59;69.52;100054.38;7394210;19;20488;-65
2023/07/29 11:36:20;;;;;;;1.63;1.30;;;;;;;22.59;69.35;100051.69;7395130;19;20022;-67
2023/07/29 11:38:49;;;;;;;1.45;1.35;;;;;;;22.58;69.71;100082.94;7396111;19;20023;-67